Time;durP1;ratioP1;P1;durP2;ratioP2;P2;SDS_P1;SDS_P2;PMS_P1;PMS_P2;Temp;Humidity;BMP_temperature;BMP_pressure;BME280_temperature;BME280_humidity;BME280_pressure;Samples;Min_cycle;Max_cycle;Signal;HPM_P1;HPM_P2
2022/07/03 08:33:13;;;;;;;6.57;1.23;;;18.30;90.60;;;;;;5090482;28;20691;-51
2022/07/03 08:35:39;;;;;;;6.32;2.05;;;18.30;90.50;;;;;;5060619;28;20450;-52
2022/07/03 08:38:06;;;;;;;3.83;1.10;;;18.50;90.60;;;;;;5070312;28;20127;-53
2022/07/03 08:40:33;;;;;;;4.00;1.10;;;18.70;90.10;;;;;;5069643;28;20044;-51
2022/07/03 08:43:03;;;;;;;5.15;1.30;;;18.80;89.00;;;;;;5072861;28;20450;-54
2022/07/03 08:45:30;;;;;;;3.78;1.10;;;18.70;88.40;;;;;;5069945;28;20044;-53
2022/07/03 08:47:57;;;;;;;7.05;1.23;;;18.70;88.10;;;;;;5069448;28;20037;-50
2022/07/03 08:50:24;;;;;;;3.60;0.98;;;18.80;87.90;;;;;;5067844;28;20492;-54
2022/07/03 08:52:50;;;;;;;5.07;1.05;;;18.90;87.70;;;;;;5068536;28;20037;-54
2022/07/03 08:55:17;;;;;;;5.68;1.25;;;18.90;89.10;;;;;;5070832;28;20042;-54
2022/07/03 08:57:44;;;;;;;5.97;1.73;;;19.00;88.70;;;;;;5072419;28;20044;-54
2022/07/03 09:00:11;;;;;;;4.47;1.10;;;19.20;88.20;;;;;;5068282;28;20480;-52
2022/07/03 09:02:38;;;;;;;6.03;1.40;;;19.20;87.30;;;;;;5069088;28;20099;-49
2022/07/03 09:05:06;;;;;;;5.75;1.08;;;19.20;87.10;;;;;;5067444;28;20080;-51
2022/07/03 09:07:33;;;;;;;5.28;1.45;;;19.20;86.80;;;;;;5067051;28;20095;-52
2022/07/03 09:10:00;;;;;;;5.47;1.52;;;19.20;87.30;;;;;;5069357;28;20083;-54
2022/07/03 09:12:27;;;;;;;5.35;1.10;;;19.30;86.80;;;;;;5069290;28;20048;-53
2022/07/03 09:14:54;;;;;;;4.47;1.15;;;19.30;86.20;;;;;;5068560;28;20032;-48
2022/07/03 09:17:21;;;;;;;5.97;1.10;;;19.40;85.50;;;;;;5069277;28;20510;-54
2022/07/03 09:19:47;;;;;;;4.32;1.02;;;19.40;85.20;;;;;;5069220;28;20044;-52
2022/07/03 09:22:14;;;;;;;5.18;1.02;;;19.40;85.10;;;;;;5064493;28;20124;-53
2022/07/03 09:24:41;;;;;;;5.22;1.00;;;19.30;85.70;;;;;;5068693;28;20045;-51
2022/07/03 09:27:08;;;;;;;7.05;1.10;;;19.40;85.40;;;;;;5063878;28;20048;-52
2022/07/03 09:29:35;;;;;;;7.07;1.27;;;19.50;86.10;;;;;;5064028;28;20072;-51
2022/07/03 09:32:02;;;;;;;4.70;1.33;;;19.50;84.00;;;;;;5063980;28;20551;-54
2022/07/03 09:34:29;;;;;;;3.92;1.00;;;19.50;84.50;;;;;;5067641;28;20045;-52
2022/07/03 09:36:56;;;;;;;4.95;1.02;;;19.50;84.10;;;;;;5062445;28;20040;-51
2022/07/03 09:39:23;;;;;;;8.13;1.08;;;19.50;83.70;;;;;;5061500;28;20029;-48
2022/07/03 09:41:50;;;;;;;3.97;0.98;;;19.40;84.30;;;;;;5062724;28;20044;-51
2022/07/03 09:44:20;;;;;;;3.83;1.17;;;19.30;86.80;;;;;;5049215;28;20606;-53
2022/07/03 09:46:47;;;;;;;5.63;1.23;;;19.50;84.40;;;;;;5047246;28;20424;-50
2022/07/03 09:49:14;;;;;;;4.60;1.17;;;19.30;84.10;;;;;;5050978;28;20037;-55
2022/07/03 09:51:41;;;;;;;4.63;1.15;;;19.50;85.40;;;;;;5052663;28;20376;-55
2022/07/03 09:54:07;;;;;;;5.10;0.82;;;19.60;84.50;;;;;;5055671;28;20068;-56
2022/07/03 09:56:34;;;;;;;5.13;1.00;;;19.50;83.40;;;;;;5053396;28;20037;-57
2022/07/03 09:59:01;;;;;;;4.15;1.00;;;19.50;83.70;;;;;;5048743;28;20492;-53
2022/07/03 10:01:28;;;;;;;4.90;1.35;;;19.50;84.00;;;;;;5045262;28;20036;-53
2022/07/03 10:03:55;;;;;;;4.78;1.20;;;19.70;85.00;;;;;;5046852;28;20116;-56
2022/07/03 10:06:22;;;;;;;5.10;1.20;;;19.80;82.80;;;;;;5046960;28;20029;-58
2022/07/03 10:08:50;;;;;;;3.15;0.98;;;19.90;84.50;;;;;;5051517;28;20029;-55
2022/07/03 10:11:17;;;;;;;4.15;0.90;;;19.70;83.20;;;;;;5050768;28;20037;-50
2022/07/03 10:13:44;;;;;;;2.50;0.60;;;19.80;83.00;;;;;;5053387;28;20048;-51
2022/07/03 10:16:10;;;;;;;3.58;0.80;;;19.70;79.70;;;;;;5055642;28;20462;-53
2022/07/03 10:18:37;;;;;;;3.33;0.80;;;19.60;80.30;;;;;;5053921;28;20368;-56
2022/07/03 10:21:04;;;;;;;3.95;0.88;;;19.50;80.60;;;;;;5048005;28;20041;-53
2022/07/03 10:23:31;;;;;;;7.28;1.25;;;19.50;81.70;;;;;;5052461;28;20051;-54
2022/07/03 10:45:16;;;;;;;3.22;0.70;;;19.80;81.00;;;;;;5095269;28;20037;-54
2022/07/03 10:47:43;;;;;;;5.53;0.82;;;20.00;81.70;;;;;;5096532;28;20036;-54
2022/07/03 10:50:11;;;;;;;3.35;0.93;;;20.30;81.00;;;;;;5089709;28;20044;-54
2022/07/03 10:52:37;;;;;;;5.05;0.70;;;20.30;81.20;;;;;;5091110;28;20036;-53
2022/07/03 10:55:06;;;;;;;2.65;0.80;;;20.30;81.90;;;;;;5090057;28;20448;-54
2022/07/03 10:57:33;;;;;;;4.25;0.95;;;20.20;82.50;;;;;;5097354;28;20043;-54
2022/07/03 11:00:00;;;;;;;5.63;1.00;;;20.20;82.70;;;;;;5107089;28;20094;-49
2022/07/03 11:02:27;;;;;;;5.75;1.27;;;20.10;82.60;;;;;;5090460;28;20467;-55
2022/07/03 11:04:54;;;;;;;6.70;1.10;;;20.10;82.60;;;;;;5093015;28;20028;-51
2022/07/03 11:07:21;;;;;;;2.78;0.93;;;20.10;83.00;;;;;;5092497;28;20037;-55
2022/07/03 11:09:47;;;;;;;5.53;1.73;;;20.20;82.80;;;;;;5097212;28;20032;-51
2022/07/03 11:12:14;;;;;;;3.00;0.95;;;20.20;82.10;;;;;;5107723;28;20093;-54
2022/07/03 11:14:41;;;;;;;3.40;0.93;;;20.20;82.10;;;;;;5092951;28;20090;-48
2022/07/03 11:17:08;;;;;;;3.60;0.90;;;20.20;81.80;;;;;;5096959;28;20149;-53
2022/07/03 11:19:35;;;;;;;4.22;1.25;;;20.20;81.00;;;;;;5086078;28;20038;-54
2022/07/03 11:22:02;;;;;;;3.53;1.00;;;20.20;80.60;;;;;;5089609;28;20036;-50
2022/07/03 11:24:29;;;;;;;3.28;0.73;;;20.30;81.00;;;;;;5104130;28;20044;-50
2022/07/03 11:26:55;;;;;;;3.55;0.70;;;20.40;80.90;;;;;;5095880;28;20048;-56
2022/07/03 11:29:22;;;;;;;3.97;1.20;;;20.50;79.80;;;;;;5100150;28;20511;-52
2022/07/03 11:31:49;;;;;;;5.10;1.00;;;20.50;79.90;;;;;;5087428;28;20040;-56
2022/07/03 11:34:15;;;;;;;3.42;0.98;;;20.50;79.90;;;;;;5087426;28;20052;-57
2022/07/03 11:36:42;;;;;;;5.07;1.00;;;20.50;80.20;;;;;;5088835;28;20048;-55
2022/07/03 11:39:09;;;;;;;3.58;0.90;;;20.60;80.00;;;;;;5089338;28;20415;-53
2022/07/03 11:41:36;;;;;;;6.32;0.80;;;20.60;79.60;;;;;;5086829;28;20102;-51
2022/07/03 11:44:03;;;;;;;2.60;0.80;;;20.60;79.90;;;;;;5076254;28;20040;-58
2022/07/03 11:46:29;;;;;;;3.92;0.80;;;20.70;79.90;;;;;;5082682;28;20097;-60
2022/07/03 11:48:56;;;;;;;2.10;0.85;;;20.70;78.40;;;;;;5095634;28;20043;-48
2022/07/03 11:51:23;;;;;;;2.72;0.77;;;20.70;76.20;;;;;;5069493;28;21167;-55
2022/07/03 11:53:51;;;;;;;4.20;0.80;;;20.50;76.20;;;;;;5095547;28;20067;-52
2022/07/03 11:56:18;;;;;;;3.35;0.90;;;20.50;76.60;;;;;;5074412;28;20070;-55
2022/07/03 11:58:45;;;;;;;2.53;0.70;;;20.50;77.50;;;;;;5069233;28;20066;-52
2022/07/03 12:01:12;;;;;;;2.22;0.80;;;20.60;76.60;;;;;;5095201;28;20531;-52
2022/07/03 12:03:39;;;;;;;3.97;0.90;;;20.80;76.10;;;;;;5094120;28;20044;-53
2022/07/03 12:06:05;;;;;;;2.33;0.80;;;20.90;74.90;;;;;;5095052;28;20050;-56
2022/07/03 12:08:32;;;;;;;3.15;0.90;;;20.90;74.90;;;;;;5095123;28;20048;-57
2022/07/03 12:10:59;;;;;;;3.80;0.93;;;20.90;74.60;;;;;;5094984;28;20036;-52
2022/07/03 12:13:27;;;;;;;2.70;0.75;;;21.00;74.20;;;;;;5095057;28;20434;-58
2022/07/03 12:15:54;;;;;;;4.13;0.73;;;21.10;74.10;;;;;;5095026;28;20081;-51
2022/07/03 12:18:20;;;;;;;3.08;0.70;;;21.20;73.60;;;;;;5094993;28;20047;-53
2022/07/03 12:20:47;;;;;;;2.03;0.60;;;21.30;73.00;;;;;;5095088;28;20378;-52
2022/07/03 12:23:14;;;;;;;3.50;0.60;;;21.20;73.00;;;;;;5094872;28;20040;-54
2022/07/03 12:25:41;;;;;;;2.80;0.77;;;21.20;72.70;;;;;;5080513;28;20052;-56
2022/07/03 12:28:07;;;;;;;3.70;0.95;;;21.40;73.40;;;;;;5075505;28;20040;-53
2022/07/03 12:30:34;;;;;;;2.70;0.75;;;21.50;73.30;;;;;;5075192;28;20067;-51
2022/07/03 12:33:01;;;;;;;3.45;1.30;;;21.60;73.00;;;;;;5075168;28;20369;-54
2022/07/03 12:51:34;;;;;;;3.65;0.80;;;21.60;71.30;;;;;;5090067;28;20752;-50
2022/07/03 12:54:04;;;;;;;4.55;1.27;;;22.20;71.60;;;;;;5090201;28;20032;-58
2022/07/03 12:56:30;;;;;;;5.95;0.90;;;22.30;72.00;;;;;;5090011;28;20040;-54
2022/07/03 13:01:42;;;;;;;2.85;0.85;;;22.60;71.40;;;;;;5070577;28;20140;-57
2022/07/03 13:04:14;;;;;;;2.58;0.70;;;22.70;70.10;;;;;;5068616;28;20157;-51
2022/07/03 13:06:41;;;;;;;3.90;0.90;;;22.80;70.20;;;;;;5070409;28;20054;-52
2022/07/03 13:09:08;;;;;;;2.22;0.77;;;22.90;69.30;;;;;;5070028;28;20103;-59
2022/07/03 13:11:34;;;;;;;3.92;0.65;;;22.90;70.00;;;;;;5070051;28;20045;-48
2022/07/03 13:14:01;;;;;;;2.42;0.73;;;22.90;69.10;;;;;;5070212;28;20039;-52
2022/07/03 13:16:28;;;;;;;2.65;0.98;;;22.90;69.30;;;;;;5070266;28;20039;-51
2022/07/03 13:18:55;;;;;;;2.72;1.00;;;22.80;68.20;;;;;;5069963;28;20092;-57
2022/07/03 13:21:21;;;;;;;4.40;1.00;;;22.60;68.80;;;;;;5070139;28;20044;-53
2022/07/03 13:23:48;;;;;;;2.30;0.80;;;22.60;69.40;;;;;;5069943;28;20066;-50
2022/07/03 13:26:15;;;;;;;4.63;0.68;;;22.60;69.80;;;;;;5070053;28;20041;-55
2022/07/03 13:28:42;;;;;;;7.53;1.10;;;22.60;70.40;;;;;;5069701;28;20037;-53
2022/07/03 13:31:08;;;;;;;3.15;0.98;;;22.60;71.00;;;;;;5069755;28;20048;-52
2022/07/03 13:33:35;;;;;;;3.75;0.80;;;22.70;71.50;;;;;;5069845;28;20094;-53
2022/07/03 13:36:07;;;;;;;3.30;1.10;;;22.70;70.70;;;;;;5085798;28;20048;-48
2022/07/03 13:38:33;;;;;;;3.50;0.90;;;22.60;70.20;;;;;;5088961;28;20049;-55
2022/07/03 13:41:00;;;;;;;3.75;0.80;;;22.80;70.90;;;;;;5087702;28;20053;-53
2022/07/03 13:43:27;;;;;;;3.05;0.90;;;22.90;70.00;;;;;;5079159;28;20444;-52
2022/07/03 13:45:54;;;;;;;2.60;0.90;;;23.00;69.60;;;;;;5068921;28;20059;-55
2022/07/03 13:48:21;;;;;;;4.05;1.00;;;23.20;69.70;;;;;;5079055;28;20112;-50
2022/07/03 13:50:47;;;;;;;3.67;1.00;;;23.20;69.00;;;;;;5060204;28;20071;-49
2022/07/03 13:53:14;;;;;;;2.83;0.75;;;23.40;69.50;;;;;;5055182;28;20420;-52
2022/07/03 13:55:41;;;;;;;1.90;0.60;;;23.60;68.50;;;;;;5075416;28;20480;-55
2022/07/03 13:58:07;;;;;;;3.50;0.95;;;23.70;67.50;;;;;;5074659;28;20419;-54
2022/07/03 14:00:34;;;;;;;3.38;0.98;;;23.70;67.20;;;;;;5074306;28;20044;-50
2022/07/03 14:03:01;;;;;;;6.20;0.77;;;23.60;66.10;;;;;;5073083;28;20037;-58
2022/07/03 14:05:28;;;;;;;2.17;0.68;;;23.60;67.00;;;;;;5063614;28;20112;-56
2022/07/03 14:07:55;;;;;;;2.65;0.70;;;23.70;65.60;;;;;;5055026;28;20469;-57
2022/07/03 14:10:24;;;;;;;2.55;0.73;;;23.70;65.60;;;;;;5055297;28;20041;-53
2022/07/03 14:12:51;;;;;;;6.57;1.45;;;23.60;65.70;;;;;;5055420;28;20048;-54
2022/07/03 14:15:18;;;;;;;3.13;0.93;;;23.60;66.60;;;;;;5055843;28;20044;-55
2022/07/03 14:17:45;;;;;;;3.47;0.98;;;23.50;66.50;;;;;;5055978;28;20049;-56
2022/07/03 14:20:12;;;;;;;3.47;0.80;;;23.40;66.90;;;;;;5049335;28;20401;-55
2022/07/03 14:22:39;;;;;;;4.63;1.05;;;23.20;66.30;;;;;;5055187;28;20416;-54
2022/07/03 14:25:06;;;;;;;5.38;2.92;;;23.10;66.00;;;;;;5055792;28;20378;-48
2022/07/03 14:33:04;;;;;;;2.53;0.73;;;22.90;66.60;;;;;;5055411;28;20084;-51
2022/07/03 14:35:30;;;;;;;2.92;0.90;;;22.90;66.40;;;;;;5054545;28;20044;-53
2022/07/03 14:37:57;;;;;;;3.83;1.52;;;22.90;66.80;;;;;;5067745;28;20138;-53
2022/07/03 14:40:24;;;;;;;3.63;1.13;;;22.80;66.80;;;;;;5068397;28;20033;-55
2022/07/03 14:42:51;;;;;;;2.78;0.93;;;22.70;66.60;;;;;;5054132;28;20041;-58
2022/07/03 14:45:18;;;;;;;2.53;0.77;;;22.50;66.90;;;;;;5055292;28;20095;-52
2022/07/03 14:47:44;;;;;;;4.10;0.90;;;22.30;67.40;;;;;;5055090;28;20033;-56
2022/07/03 14:50:11;;;;;;;4.82;1.00;;;22.30;67.90;;;;;;5053465;28;20040;-51
2022/07/03 14:52:38;;;;;;;3.65;1.02;;;22.30;68.20;;;;;;5055407;28;20045;-52
2022/07/03 14:55:05;;;;;;;4.18;1.50;;;22.30;67.70;;;;;;5053070;28;20048;-53
2022/07/03 14:57:37;;;;;;;5.32;1.10;;;22.20;68.40;;;;;;5054968;28;20037;-52
2022/07/03 15:00:03;;;;;;;3.00;0.88;;;22.10;69.10;;;;;;5055181;28;20056;-50
2022/07/03 15:02:30;;;;;;;2.58;0.70;;;22.20;69.50;;;;;;5064516;28;20051;-49
2022/07/03 15:04:57;;;;;;;2.15;0.85;;;22.20;69.90;;;;;;5067502;28;20459;-52
2022/07/03 15:07:24;;;;;;;4.28;0.70;;;22.20;70.70;;;;;;5053644;28;20041;-51
2022/07/03 15:09:50;;;;;;;1.70;0.88;;;22.10;71.60;;;;;;5054717;28;20445;-55
2022/07/03 15:12:35;;;;;;;4.22;0.85;;;22.10;71.80;;;;;;5071805;28;20068;-54
2022/07/03 15:15:02;;;;;;;5.03;0.80;;;22.00;71.80;;;;;;5063770;28;20040;-54
2022/07/03 15:17:29;;;;;;;3.80;1.20;;;22.00;71.90;;;;;;5072544;28;20070;-57
2022/07/03 15:19:56;;;;;;;3.13;1.10;;;21.90;71.90;;;;;;5073728;28;20507;-58
2022/07/03 15:22:23;;;;;;;2.58;0.90;;;21.90;72.40;;;;;;5058743;28;20053;-48
2022/07/03 15:24:50;;;;;;;2.83;0.85;;;21.90;72.10;;;;;;5054343;28;20519;-54
2022/07/03 15:27:17;;;;;;;3.80;0.98;;;21.90;71.60;;;;;;5052938;28;20103;-59
2022/07/03 15:29:43;;;;;;;3.17;0.88;;;21.90;72.00;;;;;;5071475;28;20044;-52
2022/07/03 15:32:10;;;;;;;2.42;0.80;;;21.90;72.00;;;;;;5072095;28;20450;-55
2022/07/03 15:34:38;;;;;;;3.40;1.13;;;21.90;72.50;;;;;;5073496;28;20416;-53
2022/07/03 15:37:05;;;;;;;3.88;1.30;;;21.90;72.80;;;;;;5073391;28;20093;-53
2022/07/03 15:39:31;;;;;;;3.65;1.40;;;21.90;73.00;;;;;;5072153;28;20048;-51
2022/07/03 15:41:58;;;;;;;3.88;1.20;;;21.90;73.00;;;;;;5058449;28;20094;-57
2022/07/03 15:44:27;;;;;;;2.55;0.88;;;22.00;73.10;;;;;;5054300;28;20044;-56
2022/07/03 15:46:53;;;;;;;3.65;1.05;;;22.10;72.60;;;;;;5052653;28;20520;-55
2022/07/03 15:49:20;;;;;;;2.60;1.00;;;22.20;72.90;;;;;;5052988;28;20076;-54
2022/07/03 15:51:47;;;;;;;3.50;1.05;;;22.40;72.80;;;;;;5052326;28;20459;-54
2022/07/03 15:54:14;;;;;;;2.92;0.98;;;22.40;72.90;;;;;;5053944;28;20385;-53
2022/07/03 15:56:41;;;;;;;3.00;1.10;;;22.40;72.70;;;;;;5053055;28;20083;-58
2022/07/03 15:59:07;;;;;;;2.65;0.82;;;22.40;72.80;;;;;;5052661;28;20080;-56
2022/07/03 16:04:20;;;;;;;2.60;1.00;;;22.20;71.80;;;;;;5047596;28;20489;-53
2022/07/03 16:06:47;;;;;;;6.10;1.33;;;22.20;72.20;;;;;;5059593;28;20439;-56
2022/07/03 16:09:14;;;;;;;5.13;1.10;;;22.10;72.40;;;;;;5044763;28;20056;-54
2022/07/03 16:11:40;;;;;;;2.42;1.10;;;22.10;72.60;;;;;;5055758;28;20059;-52
2022/07/03 16:14:07;;;;;;;4.20;1.40;;;22.00;72.30;;;;;;5071111;28;20048;-54
2022/07/03 16:16:34;;;;;;;3.13;0.77;;;21.90;72.10;;;;;;5053836;28;20037;-51
2022/07/03 16:19:01;;;;;;;3.63;1.00;;;21.80;71.30;;;;;;5055559;28;20376;-54
2022/07/03 16:21:27;;;;;;;6.35;1.02;;;21.90;71.80;;;;;;5058390;28;20553;-56
2022/07/03 16:23:54;;;;;;;2.90;0.88;;;22.10;71.70;;;;;;5062654;28;20044;-53
2022/07/03 16:26:21;;;;;;;4.03;1.10;;;22.20;71.80;;;;;;5061903;28;20555;-57
2022/07/03 16:28:48;;;;;;;3.72;1.02;;;22.40;71.90;;;;;;5052463;28;20048;-56
2022/07/03 16:31:14;;;;;;;4.15;0.98;;;22.60;71.50;;;;;;5063773;28;20090;-54
2022/07/03 16:33:44;;;;;;;2.55;1.00;;;23.10;70.20;;;;;;5050325;28;20048;-53
2022/07/03 16:36:11;;;;;;;3.65;1.05;;;23.40;71.50;;;;;;5049982;28;20444;-51
2022/07/03 16:38:37;;;;;;;3.05;1.10;;;23.50;72.60;;;;;;5058550;28;20040;-52
2022/07/03 16:41:04;;;;;;;3.55;1.38;;;23.60;72.70;;;;;;5065741;28;20041;-56
2022/07/03 16:43:32;;;;;;;3.03;1.10;;;24.10;73.00;;;;;;5053274;28;20051;-54
2022/07/03 16:45:58;;;;;;;4.32;1.02;;;25.00;70.50;;;;;;5052966;28;20504;-58
2022/07/03 16:48:25;;;;;;;2.45;0.93;;;25.60;68.90;;;;;;5058017;28;20119;-54
2022/07/03 16:50:52;;;;;;;4.10;1.20;;;25.40;68.50;;;;;;5065846;28;20056;-50
2022/07/03 16:53:19;;;;;;;3.55;1.02;;;25.00;68.30;;;;;;5060509;28;20037;-53
2022/07/03 16:55:46;;;;;;;3.13;1.10;;;24.50;67.90;;;;;;5054045;28;20037;-54
2022/07/03 16:58:14;;;;;;;5.30;1.20;;;24.10;68.70;;;;;;5053187;28;20396;-58
2022/07/03 17:00:44;;;;;;;3.90;1.17;;;23.70;69.20;;;;;;5053139;28;20444;-51
2022/07/03 17:03:11;;;;;;;2.50;1.00;;;23.50;70.20;;;;;;5052761;28;20055;-53
2022/07/03 17:05:38;;;;;;;6.20;1.35;;;23.30;70.50;;;;;;5062857;28;20391;-58
2022/07/03 17:08:04;;;;;;;3.33;1.00;;;23.10;70.30;;;;;;5054353;28;20037;-49
2022/07/03 17:10:35;;;;;;;3.28;1.25;;;23.00;70.20;;;;;;5052214;28;20457;-56
2022/07/03 17:13:02;;;;;;;4.45;1.50;;;22.90;70.90;;;;;;5051401;28;20106;-56
2022/07/03 17:15:29;;;;;;;3.03;1.42;;;22.80;71.40;;;;;;5053170;28;20441;-54
2022/07/03 17:17:57;;;;;;;2.70;1.55;;;22.70;71.50;;;;;;5064483;28;20034;-50
2022/07/03 17:20:25;;;;;;;4.40;1.50;;;22.60;70.90;;;;;;5071765;28;20037;-51
2022/07/03 17:22:52;;;;;;;4.80;1.83;;;22.50;70.20;;;;;;5069501;28;20040;-55
2022/07/03 17:25:18;;;;;;;3.42;1.70;;;22.40;70.10;;;;;;5066312;28;20416;-50
2022/07/03 17:27:46;;;;;;;3.55;1.45;;;22.40;70.00;;;;;;5046623;28;20045;-52
2022/07/03 17:30:13;;;;;;;3.35;1.20;;;22.20;70.60;;;;;;5051322;28;20389;-57
2022/07/03 17:32:39;;;;;;;4.25;2.22;;;22.10;71.40;;;;;;5055243;28;20033;-55
2022/07/03 17:35:06;;;;;;;3.03;1.60;;;22.10;71.50;;;;;;5056285;28;20405;-59
2022/07/03 17:37:33;;;;;;;5.72;1.55;;;22.10;71.80;;;;;;5051725;28;20048;-56
2022/07/03 17:40:00;;;;;;;3.20;1.27;;;22.10;72.10;;;;;;5060705;28;20481;-53
2022/07/03 17:42:26;;;;;;;4.60;1.80;;;22.10;72.30;;;;;;5058955;28;20032;-55
2022/07/03 17:44:53;;;;;;;4.75;1.35;;;22.00;72.80;;;;;;5057381;28;20048;-54
2022/07/03 17:47:20;;;;;;;2.78;1.00;;;21.90;72.40;;;;;;5056573;28;20037;-50
2022/07/03 17:49:47;;;;;;;2.80;1.33;;;21.90;72.90;;;;;;5052568;28;20041;-52
2022/07/03 17:52:15;;;;;;;4.38;1.63;;;21.80;72.70;;;;;;5060148;28;20041;-50
2022/07/03 17:54:41;;;;;;;4.38;1.70;;;21.80;73.00;;;;;;5060913;28;20037;-52
2022/07/03 17:59:53;;;;;;;;;;;21.80;73.00;;;;;;5059930;28;20049;-51
2022/07/03 18:02:20;;;;;;;4.05;2.20;;;22.30;72.70;;;;;;5055112;28;20007;-55
2022/07/03 18:04:47;;;;;;;2.55;1.25;;;22.40;72.50;;;;;;5057165;28;20041;-54
2022/07/03 18:07:14;;;;;;;4.00;2.10;;;22.30;72.70;;;;;;5054652;28;20037;-51
2022/07/03 18:09:40;;;;;;;6.30;2.10;;;22.30;73.00;;;;;;5052601;28;20067;-54
2022/07/03 18:12:10;;;;;;;6.38;1.75;;;22.20;73.30;;;;;;5061806;28;20110;-57
2022/07/03 18:14:37;;;;;;;4.25;1.55;;;22.10;74.10;;;;;;5069055;28;20045;-57
2022/07/03 18:17:03;;;;;;;3.78;1.40;;;22.00;74.60;;;;;;5063382;28;20153;-52
2022/07/03 18:19:30;;;;;;;4.32;1.42;;;21.90;74.90;;;;;;5049538;28;20049;-50
2022/07/03 18:21:57;;;;;;;4.28;1.60;;;21.80;75.70;;;;;;5059985;28;20037;-56
2022/07/03 18:24:24;;;;;;;4.78;1.77;;;21.70;76.20;;;;;;5063537;28;20056;-59
2022/07/03 18:26:52;;;;;;;4.72;1.23;;;21.60;76.50;;;;;;5055347;28;20045;-55
2022/07/03 18:29:19;;;;;;;5.05;1.25;;;21.60;77.00;;;;;;5050454;28;20049;-55
2022/07/03 18:31:45;;;;;;;3.83;1.35;;;21.60;76.90;;;;;;5054677;28;20033;-53
2022/07/03 18:34:12;;;;;;;4.75;1.13;;;21.50;77.10;;;;;;5067972;28;20037;-49
2022/07/03 18:36:39;;;;;;;6.63;1.70;;;21.40;77.10;;;;;;5059094;28;20049;-52
2022/07/03 18:39:06;;;;;;;4.55;2.10;;;21.40;77.20;;;;;;5066937;28;20055;-55
2022/07/03 18:41:32;;;;;;;6.75;2.03;;;21.40;77.40;;;;;;5048776;28;20037;-59
2022/07/03 18:43:59;;;;;;;3.83;1.20;;;21.30;77.60;;;;;;5066060;28;20037;-49
2022/07/03 18:46:26;;;;;;;3.40;1.40;;;21.40;77.80;;;;;;5059646;28;20114;-48
2022/07/03 18:48:53;;;;;;;4.20;1.48;;;21.30;77.80;;;;;;5045979;28;20112;-50
2022/07/03 18:51:20;;;;;;;4.20;1.90;;;21.30;78.00;;;;;;5062898;28;20045;-52
2022/07/03 18:53:47;;;;;;;5.63;2.20;;;21.40;77.70;;;;;;5059519;28;20086;-51
2022/07/03 18:56:14;;;;;;;4.80;1.42;;;21.50;77.80;;;;;;5050957;28;20087;-55
2022/07/03 18:58:40;;;;;;;4.03;1.48;;;21.60;77.80;;;;;;5052836;28;20111;-52
2022/07/03 19:01:07;;;;;;;4.95;1.73;;;21.50;77.90;;;;;;5051993;28;20087;-50
2022/07/03 19:03:34;;;;;;;4.22;1.20;;;21.40;77.60;;;;;;5054541;28;20045;-49
2022/07/03 19:06:01;;;;;;;5.53;1.27;;;21.30;78.00;;;;;;5054654;28;20072;-50
2022/07/03 19:08:29;;;;;;;4.95;1.27;;;21.30;78.00;;;;;;5053285;28;20055;-56
2022/07/03 19:10:56;;;;;;;3.33;1.48;;;21.20;77.60;;;;;;5073194;28;20040;-51
2022/07/03 19:13:22;;;;;;;6.07;1.60;;;21.20;77.80;;;;;;5053594;28;20037;-53
2022/07/03 19:15:49;;;;;;;5.15;1.83;;;21.20;77.90;;;;;;5073044;28;20090;-58
2022/07/03 19:18:16;;;;;;;5.68;1.65;;;21.10;77.90;;;;;;5063432;28;20041;-53
2022/07/03 19:20:42;;;;;;;2.70;1.48;;;21.10;77.60;;;;;;5052353;28;20440;-50
2022/07/03 19:23:09;;;;;;;4.68;1.48;;;20.90;77.90;;;;;;5060101;28;20134;-53
2022/07/03 19:25:36;;;;;;;4.65;1.40;;;20.80;77.90;;;;;;5059006;28;20041;-49
2022/07/03 19:28:03;;;;;;;5.38;1.20;;;20.70;77.90;;;;;;5069876;28;20400;-52
2022/07/03 19:30:30;;;;;;;3.53;1.42;;;20.60;78.10;;;;;;5053510;28;20033;-57
2022/07/03 19:32:57;;;;;;;3.85;1.27;;;20.50;78.30;;;;;;5053664;28;20127;-51
2022/07/03 19:35:24;;;;;;;2.72;1.13;;;20.50;78.70;;;;;;5051361;28;20025;-50
2022/07/03 19:37:50;;;;;;;5.50;1.95;;;20.40;78.90;;;;;;5052024;28;20052;-52
2022/07/03 19:40:17;;;;;;;7.20;1.90;;;20.40;78.80;;;;;;5050104;28;20041;-55
2022/07/03 19:42:44;;;;;;;3.60;1.42;;;20.40;79.10;;;;;;5063191;28;20051;-48
2022/07/03 19:45:11;;;;;;;6.05;1.40;;;20.30;79.00;;;;;;5053992;28;20052;-48
2022/07/03 19:47:37;;;;;;;4.55;1.70;;;20.20;79.00;;;;;;5049559;28;20055;-55
2022/07/03 19:50:05;;;;;;;4.75;1.77;;;20.20;79.20;;;;;;5052085;28;20041;-55
2022/07/03 19:52:32;;;;;;;4.05;1.52;;;20.10;79.40;;;;;;5054078;28;20041;-54
2022/07/03 19:55:02;;;;;;;3.95;2.00;;;20.10;79.60;;;;;;5058899;28;20095;-48
2022/07/03 19:57:28;;;;;;;8.18;1.92;;;20.10;79.60;;;;;;5062960;28;20496;-55
2022/07/03 19:59:55;;;;;;;3.03;1.48;;;20.00;79.40;;;;;;5073184;28;20040;-54
2022/07/03 20:02:22;;;;;;;5.10;1.80;;;19.90;79.60;;;;;;5065591;28;20106;-51
2022/07/03 20:04:49;;;;;;;4.63;1.63;;;19.90;80.00;;;;;;5072927;28;20099;-52
2022/07/03 20:07:16;;;;;;;3.45;1.83;;;19.80;80.00;;;;;;5056776;28;20036;-53
2022/07/03 20:09:45;;;;;;;3.30;1.75;;;19.80;80.10;;;;;;5073094;28;20048;-51
2022/07/03 20:12:12;;;;;;;6.38;1.88;;;19.80;80.10;;;;;;5056482;28;20555;-56
2022/07/03 20:14:38;;;;;;;4.35;1.92;;;19.70;80.20;;;;;;5053613;28;20041;-51
2022/07/03 20:17:05;;;;;;;5.00;2.10;;;19.70;80.60;;;;;;5056280;28;20036;-56
2022/07/03 20:19:32;;;;;;;4.13;1.90;;;19.60;81.10;;;;;;5052155;28;20488;-50
2022/07/03 20:21:59;;;;;;;4.82;2.22;;;19.50;81.30;;;;;;5061902;28;20048;-49
2022/07/03 20:24:32;;;;;;;4.55;1.85;;;19.50;81.60;;;;;;5069820;28;20037;-51
2022/07/03 20:26:58;;;;;;;5.13;2.30;;;19.40;81.60;;;;;;5065655;28;20045;-54
2022/07/03 20:29:25;;;;;;;4.88;2.03;;;19.30;81.70;;;;;;5051606;28;20052;-50
2022/07/03 20:31:52;;;;;;;5.90;1.50;;;19.30;82.20;;;;;;5053534;28;20059;-52
2022/07/03 20:34:19;;;;;;;4.28;1.70;;;19.30;83.20;;;;;;5053033;28;20083;-53
2022/07/03 20:36:45;;;;;;;5.18;1.65;;;19.20;82.50;;;;;;5053558;28;20048;-48
2022/07/03 20:39:12;;;;;;;5.05;2.00;;;19.20;82.80;;;;;;5051087;28;20103;-56
2022/07/03 20:41:39;;;;;;;5.47;2.22;;;19.20;83.10;;;;;;5050640;28;20056;-54
2022/07/03 20:44:06;;;;;;;9.05;2.72;;;19.10;83.20;;;;;;5061387;28;20103;-54
2022/07/03 20:46:33;;;;;;;7.05;3.20;;;19.10;83.30;;;;;;5059432;28;20047;-53
2022/07/03 20:49:00;;;;;;;12.93;7.85;;;19.10;83.50;;;;;;5052843;28;20119;-53
2022/07/03 20:51:27;;;;;;;8.57;5.20;;;19.10;83.70;;;;;;5052344;28;20107;-52
2022/07/03 20:53:54;;;;;;;10.40;5.00;;;19.00;84.30;;;;;;5055039;28;20083;-54
2022/07/03 20:56:21;;;;;;;10.30;5.38;;;19.00;83.90;;;;;;5062977;28;20476;-52
2022/07/03 20:58:52;;;;;;;8.90;5.07;;;19.00;84.10;;;;;;5053333;28;20036;-55
2022/07/03 21:01:18;;;;;;;8.35;4.03;;;19.00;84.10;;;;;;5058540;28;20103;-53
2022/07/03 21:03:45;;;;;;;8.15;3.13;;;19.00;85.20;;;;;;5058039;28;21024;-53
2022/07/03 21:06:24;;;;;;;6.15;3.17;;;19.00;84.60;;;;;;5038291;28;20044;-53
2022/07/03 21:08:51;;;;;;;6.65;3.17;;;19.10;84.60;;;;;;5056409;28;20041;-55
2022/07/03 21:11:34;;;;;;;7.10;3.40;;;19.10;84.40;;;;;;5055491;28;20093;-53
2022/07/03 21:14:01;;;;;;;5.00;2.90;;;19.10;84.60;;;;;;5055936;28;20493;-50
2022/07/03 21:16:41;;;;;;;3.97;2.03;;;19.10;84.80;;;;;;5050540;28;20430;-47
2022/07/03 21:19:08;;;;;;;4.40;2.00;;;19.00;84.90;;;;;;5050515;28;20045;-53
2022/07/03 21:21:35;;;;;;;4.10;1.98;;;19.10;84.90;;;;;;5056952;28;20037;-50
2022/07/03 21:24:02;;;;;;;3.63;2.00;;;19.10;84.80;;;;;;5056335;28;20037;-55
2022/07/03 21:26:29;;;;;;;4.55;1.85;;;19.10;84.90;;;;;;5056897;28;20479;-51
2022/07/03 21:28:55;;;;;;;5.45;2.15;;;19.10;85.00;;;;;;5056781;28;20048;-55
2022/07/03 21:31:22;;;;;;;3.80;1.92;;;19.10;85.10;;;;;;5070911;28;20037;-53
2022/07/03 21:33:49;;;;;;;4.18;2.35;;;19.00;85.00;;;;;;5049399;28;20053;-52
2022/07/03 21:36:16;;;;;;;3.92;2.25;;;19.10;85.00;;;;;;5054144;28;20045;-55
2022/07/03 21:38:43;;;;;;;3.28;2.05;;;19.00;84.80;;;;;;5075513;28;20075;-52
2022/07/03 21:41:09;;;;;;;3.00;1.90;;;19.10;84.80;;;;;;5069520;28;20037;-55
2022/07/03 21:43:36;;;;;;;5.40;1.98;;;19.10;84.50;;;;;;5067659;28;20036;-55
2022/07/03 21:46:03;;;;;;;3.97;1.67;;;19.10;84.20;;;;;;5056453;28;20414;-56
2022/07/03 21:48:30;;;;;;;6.18;2.38;;;19.00;84.20;;;;;;5055598;28;20076;-51
2022/07/03 21:51:00;;;;;;;3.47;1.25;;;19.00;84.30;;;;;;5056107;28;20383;-56
2022/07/03 21:53:27;;;;;;;2.75;1.40;;;19.00;84.20;;;;;;5054938;28;20037;-52
2022/07/03 21:55:53;;;;;;;3.20;1.33;;;19.00;84.20;;;;;;5055570;28;20406;-51
2022/07/03 21:58:20;;;;;;;5.85;1.50;;;19.10;84.00;;;;;;5053134;28;20044;-54
2022/07/03 22:00:47;;;;;;;4.60;1.40;;;19.00;84.20;;;;;;5050803;28;20041;-52
2022/07/03 22:03:14;;;;;;;3.17;1.65;;;19.00;84.00;;;;;;5056744;28;20126;-58
2022/07/03 22:05:40;;;;;;;5.43;1.58;;;19.00;84.00;;;;;;5055990;28;20033;-53
2022/07/03 22:08:07;;;;;;;3.47;1.45;;;19.00;84.10;;;;;;5073208;28;20488;-53